Skip Navigation Links
NOAA logo - Click to go to the NOAA homepage
NOAA's National Weather Service
Alaska Aviation Weather Unit
  NWS logo - Click to go to the NWS homepage
Left Navbar Graphic     17 AKDT = 01 GMT

   
NOAA is celebrating 200 years of science, service, and stewardship. Visit the NOAA 200th celebration Web site to learn more.
USA.gov is the U.S. Government's official Web portal to all Federal, state and local government Web resources and services.
Facebook
NWS on Facebook

Important Change Regarding the AAWU Web Presence

 

Over the last several months, the AAWU has been working to navigate its webpages to a nationally supported server. Security, as well as other needs, have necessitated the change.  In the process, we have made an effort to enhance the functionality of our website, as well as some of our products. As of June 27, 2017, aawu.arh.noaa.gov will be discontinued. The new AAWU web address is weather.gov/aawu. It is now live and will run in-parallel with the old site until it is discontinued. Please send any feedback or questions regarding the new webpages to nws.ar.aawu.webauthors@noaa.gov.  Thank you for your patience during this time of transition.
AAWU Home :: Display TAF Add Bookmark
PACZ 251917Z AUTO 19011G18KT 140V210 10SM BKN018 BKN075 10/07
A2988=

METAR PACZ 251955Z AUTO 18010G17KT 130V230 10SM OVC017 11/07 A2987=

METAR PACZ 252055Z AUTO 19012KT 10SM BKN020 11/07 A2986=

METAR PACZ 252155Z AUTO 18012G18KT 10SM BKN019 10/06 A2984=

METAR PACZ 252255Z AUTO 19011KT 10SM BKN018 11/06 A2983=

METAR PACZ 252355Z AUTO 18007KT 120V210 10SM BKN018 11/07 A2982=


NOAA's National Weather Service
Alaska Aviation Weather Unit
6930 Sand Lake Road
Anchorage, AK 99502-1845
Disclaimer
Credits
Glossary
Privacy Policy
About Us
Career Opportunities
Contact AAWU Internet Services Site last modified: April, 17th 2012